Terminal Aerodrome Forecast
Issued by NWS

Home | Current Version | Previous Version | Text Only | Print | Product List | Glossary On
Versions: 1 2 3 4 5 6 7 8 9 10 11 12 13 14 15
749
FTUS41 KPBZ 181744
TAFBVI
TAF
KBVI 181744Z 1818/1918 VRB04KT P6SM BKN025
     FM182100 17005KT P6SM SCT250
     FM190800 15007KT P6SM BKN250 WS020/19035KT
     FM191300 17009KT P6SM -RA OVC020 WS020/21035KT=

USA.gov is the U.S. government's official web portal to all federal, state and local government web resources and services.